sensor_id;sensor_type;location;lat;lon;timestamp;temperature;humidity
20858;DHT22;10589;53.636;10.012;2023-08-17T03:46:16;16.30;99.90
20858;DHT22;10589;53.636;10.012;2023-08-17T03:48:41;16.30;99.90
20858;DHT22;10589;53.636;10.012;2023-08-17T03:51:07;16.30;99.90
20858;DHT22;10589;53.636;10.012;2023-08-17T03:53:33;16.30;99.90
20858;DHT22;10589;53.636;10.012;2023-08-17T03:55:58;16.30;99.90
20858;DHT22;10589;53.636;10.012;2023-08-17T03:58:24;16.30;99.90
20858;DHT22;10589;53.636;10.012;2023-08-17T04:00:52;16.30;99.90
20858;DHT22;10589;53.636;10.012;2023-08-17T04:03:19;16.30;99.90
20858;DHT22;10589;53.636;10.012;2023-08-17T04:05:45;16.30;99.90
20858;DHT22;10589;53.636;10.012;2023-08-17T04:08:11;16.40;99.90
20858;DHT22;10589;53.636;10.012;2023-08-17T04:10:36;16.40;99.90
20858;DHT22;10589;53.636;10.012;2023-08-17T04:13:02;16.40;99.90
20858;DHT22;10589;53.636;10.012;2023-08-17T04:15:28;16.40;99.90
20858;DHT22;10589;53.636;10.012;2023-08-17T04:17:53;16.50;99.90
20858;DHT22;10589;53.636;10.012;2023-08-17T04:20:19;16.50;99.90
20858;DHT22;10589;53.636;10.012;2023-08-17T04:22:45;16.50;99.90
20858;DHT22;10589;53.636;10.012;2023-08-17T04:25:10;16.50;99.90
20858;DHT22;10589;53.636;10.012;2023-08-17T04:27:36;16.50;99.90
20858;DHT22;10589;53.636;10.012;2023-08-17T04:30:02;16.50;99.90
20858;DHT22;10589;53.636;10.012;2023-08-17T04:32:27;16.50;99.90
20858;DHT22;10589;53.636;10.012;2023-08-17T04:34:53;16.50;99.90
20858;DHT22;10589;53.636;10.012;2023-08-17T04:37:18;16.50;99.90
20858;DHT22;10589;53.636;10.012;2023-08-17T04:39:44;16.50;99.90
20858;DHT22;10589;53.636;10.012;2023-08-17T04:42:10;16.60;99.90
20858;DHT22;10589;53.636;10.012;2023-08-17T04:44:36;16.60;99.90
20858;DHT22;10589;53.636;10.012;2023-08-17T04:47:01;16.60;99.90
20858;DHT22;10589;53.636;10.012;2023-08-17T04:49:27;16.60;99.90
20858;DHT22;10589;53.636;10.012;2023-08-17T04:51:53;16.60;99.90
20858;DHT22;10589;53.636;10.012;2023-08-17T04:54:19;16.60;99.90
20858;DHT22;10589;53.636;10.012;2023-08-17T04:56:44;16.60;99.90
20858;DHT22;10589;53.636;10.012;2023-08-17T04:59:10;16.60;99.90
20858;DHT22;10589;53.636;10.012;2023-08-17T05:01:36;16.60;99.90
20858;DHT22;10589;53.636;10.012;2023-08-17T05:04:02;16.50;99.90
20858;DHT22;10589;53.636;10.012;2023-08-17T05:06:28;16.40;99.90
20858;DHT22;10589;53.636;10.012;2023-08-17T05:08:54;16.40;99.90
20858;DHT22;10589;53.636;10.012;2023-08-17T05:11:20;16.30;99.90
20858;DHT22;10589;53.636;10.012;2023-08-17T05:13:45;16.20;99.90
20858;DHT22;10589;53.636;10.012;2023-08-17T05:16:11;16.20;99.90
20858;DHT22;10589;53.636;10.012;2023-08-17T05:18:36;16.10;99.90
20858;DHT22;10589;53.636;10.012;2023-08-17T05:21:02;16.00;99.90
20858;DHT22;10589;53.636;10.012;2023-08-17T05:23:28;16.00;99.90
20858;DHT22;10589;53.636;10.012;2023-08-17T05:25:53;16.00;99.90
20858;DHT22;10589;53.636;10.012;2023-08-17T05:28:19;16.00;99.90
20858;DHT22;10589;53.636;10.012;2023-08-17T05:30:44;16.00;99.90
20858;DHT22;10589;53.636;10.012;2023-08-17T05:33:10;15.90;99.90
20858;DHT22;10589;53.636;10.012;2023-08-17T05:35:36;15.90;99.90
20858;DHT22;10589;53.636;10.012;2023-08-17T05:38:01;16.00;99.90
20858;DHT22;10589;53.636;10.012;2023-08-17T05:40:30;15.90;99.90
20858;DHT22;10589;53.636;10.012;2023-08-17T05:42:56;15.90;99.90
20858;DHT22;10589;53.636;10.012;2023-08-17T05:45:22;15.90;99.90
20858;DHT22;10589;53.636;10.012;2023-08-17T05:47:47;15.90;99.90
20858;DHT22;10589;53.636;10.012;2023-08-17T05:50:13;15.90;99.90
20858;DHT22;10589;53.636;10.012;2023-08-17T05:52:40;15.90;99.90
20858;DHT22;10589;53.636;10.012;2023-08-17T05:55:06;16.00;99.90
20858;DHT22;10589;53.636;10.012;2023-08-17T05:57:31;16.00;99.90
20858;DHT22;10589;53.636;10.012;2023-08-17T05:59:57;16.00;99.90
20858;DHT22;10589;53.636;10.012;2023-08-17T06:02:23;16.00;99.90
20858;DHT22;10589;53.636;10.012;2023-08-17T06:04:48;16.00;99.90
20858;DHT22;10589;53.636;10.012;2023-08-17T06:07:14;15.90;99.90
20858;DHT22;10589;53.636;10.012;2023-08-17T06:09:39;15.90;99.90
20858;DHT22;10589;53.636;10.012;2023-08-17T06:12:05;16.00;99.90
20858;DHT22;10589;53.636;10.012;2023-08-17T06:14:33;16.00;99.90
20858;DHT22;10589;53.636;10.012;2023-08-17T06:17:00;16.00;99.90
20858;DHT22;10589;53.636;10.012;2023-08-17T06:19:26;16.00;99.90
20858;DHT22;10589;53.636;10.012;2023-08-17T06:21:51;15.90;99.90
20858;DHT22;10589;53.636;10.012;2023-08-17T06:24:17;15.90;99.90
20858;DHT22;10589;53.636;10.012;2023-08-17T06:26:44;15.90;99.90
20858;DHT22;10589;53.636;10.012;2023-08-17T06:29:11;15.90;99.90
20858;DHT22;10589;53.636;10.012;2023-08-17T06:31:37;15.90;99.90
20858;DHT22;10589;53.636;10.012;2023-08-17T06:34:03;15.90;99.90
20858;DHT22;10589;53.636;10.012;2023-08-17T06:36:31;15.90;99.90
20858;DHT22;10589;53.636;10.012;2023-08-17T06:38:58;15.90;99.90
20858;DHT22;10589;53.636;10.012;2023-08-17T06:41:23;15.90;99.90
20858;DHT22;10589;53.636;10.012;2023-08-17T06:43:50;15.90;99.90
20858;DHT22;10589;53.636;10.012;2023-08-17T06:46:16;15.90;99.90
20858;DHT22;10589;53.636;10.012;2023-08-17T06:48:42;15.90;99.90
20858;DHT22;10589;53.636;10.012;2023-08-17T06:51:08;15.90;99.90
20858;DHT22;10589;53.636;10.012;2023-08-17T06:53:34;15.90;99.90
20858;DHT22;10589;53.636;10.012;2023-08-17T06:55:59;16.00;99.90
20858;DHT22;10589;53.636;10.012;2023-08-17T06:58:25;16.00;99.90
20858;DHT22;10589;53.636;10.012;2023-08-17T07:00:51;16.00;99.90
20858;DHT22;10589;53.636;10.012;2023-08-17T07:03:17;16.00;99.90
20858;DHT22;10589;53.636;10.012;2023-08-17T07:05:42;16.00;99.90
20858;DHT22;10589;53.636;10.012;2023-08-17T07:08:08;16.00;99.90
20858;DHT22;10589;53.636;10.012;2023-08-17T07:10:34;16.00;99.90
20858;DHT22;10589;53.636;10.012;2023-08-17T07:12:59;16.00;99.90
20858;DHT22;10589;53.636;10.012;2023-08-17T07:15:29;16.00;99.90
20858;DHT22;10589;53.636;10.012;2023-08-17T07:17:54;16.10;99.90
20858;DHT22;10589;53.636;10.012;2023-08-17T07:20:20;16.10;99.90
20858;DHT22;10589;53.636;10.012;2023-08-17T07:22:46;16.10;99.90
20858;DHT22;10589;53.636;10.012;2023-08-17T07:25:11;16.20;99.90
20858;DHT22;10589;53.636;10.012;2023-08-17T07:27:37;16.20;99.90
20858;DHT22;10589;53.636;10.012;2023-08-17T07:30:03;16.20;99.90
20858;DHT22;10589;53.636;10.012;2023-08-17T07:32:29;16.20;99.90
20858;DHT22;10589;53.636;10.012;2023-08-17T07:34:54;16.20;99.90
20858;DHT22;10589;53.636;10.012;2023-08-17T07:37:20;16.20;99.90
20858;DHT22;10589;53.636;10.012;2023-08-17T07:39:45;16.20;99.90
20858;DHT22;10589;53.636;10.012;2023-08-17T07:42:11;16.20;99.90
20858;DHT22;10589;53.636;10.012;2023-08-17T07:44:36;16.30;99.90
20858;DHT22;10589;53.636;10.012;2023-08-17T07:47:04;16.30;99.90
20858;DHT22;10589;53.636;10.012;2023-08-17T07:49:30;16.30;99.90
20858;DHT22;10589;53.636;10.012;2023-08-17T07:51:55;16.30;99.90
20858;DHT22;10589;53.636;10.012;2023-08-17T07:54:21;16.40;99.90
20858;DHT22;10589;53.636;10.012;2023-08-17T07:56:46;16.40;99.90
20858;DHT22;10589;53.636;10.012;2023-08-17T07:59:12;16.50;99.90
20858;DHT22;10589;53.636;10.012;2023-08-17T08:01:37;16.50;99.90
20858;DHT22;10589;53.636;10.012;2023-08-17T08:04:05;16.50;99.90
20858;DHT22;10589;53.636;10.012;2023-08-17T08:06:31;16.60;99.90
20858;DHT22;10589;53.636;10.012;2023-08-17T08:08:56;16.70;99.90
20858;DHT22;10589;53.636;10.012;2023-08-17T08:11:22;16.70;99.90
20858;DHT22;10589;53.636;10.012;2023-08-17T08:13:48;16.70;99.90
20858;DHT22;10589;53.636;10.012;2023-08-17T08:16:13;16.80;99.90
20858;DHT22;10589;53.636;10.012;2023-08-17T08:18:39;16.80;99.90
20858;DHT22;10589;53.636;10.012;2023-08-17T08:21:04;16.70;99.90
20858;DHT22;10589;53.636;10.012;2023-08-17T08:23:30;16.60;99.90
20858;DHT22;10589;53.636;10.012;2023-08-17T08:25:55;16.60;99.90
20858;DHT22;10589;53.636;10.012;2023-08-17T08:28:21;16.60;99.90
20858;DHT22;10589;53.636;10.012;2023-08-17T08:30:46;16.60;99.90
20858;DHT22;10589;53.636;10.012;2023-08-17T08:33:12;16.60;99.90
20858;DHT22;10589;53.636;10.012;2023-08-17T08:35:38;16.60;99.90
20858;DHT22;10589;53.636;10.012;2023-08-17T08:38:04;16.60;99.90
20858;DHT22;10589;53.636;10.012;2023-08-17T08:40:29;16.60;99.90
20858;DHT22;10589;53.636;10.012;2023-08-17T08:42:57;16.70;99.90
20858;DHT22;10589;53.636;10.012;2023-08-17T08:45:23;16.70;99.90
20858;DHT22;10589;53.636;10.012;2023-08-17T08:47:49;16.70;99.90
20858;DHT22;10589;53.636;10.012;2023-08-17T08:50:20;16.70;99.90
20858;DHT22;10589;53.636;10.012;2023-08-17T08:52:59;16.70;99.90
20858;DHT22;10589;53.636;10.012;2023-08-17T08:55:28;16.80;99.90
20858;DHT22;10589;53.636;10.012;2023-08-17T08:57:54;16.70;99.90
20858;DHT22;10589;53.636;10.012;2023-08-17T09:00:21;16.70;99.90
20858;DHT22;10589;53.636;10.012;2023-08-17T09:02:48;16.70;99.90
20858;DHT22;10589;53.636;10.012;2023-08-17T09:05:15;16.70;99.90
20858;DHT22;10589;53.636;10.012;2023-08-17T09:07:41;16.70;99.90
20858;DHT22;10589;53.636;10.012;2023-08-17T09:10:09;16.60;99.90
20858;DHT22;10589;53.636;10.012;2023-08-17T09:12:35;16.50;99.90
20858;DHT22;10589;53.636;10.012;2023-08-17T09:15:00;16.40;99.90
20858;DHT22;10589;53.636;10.012;2023-08-17T09:17:27;16.30;99.90
20858;DHT22;10589;53.636;10.012;2023-08-17T09:19:53;16.20;99.90
20858;DHT22;10589;53.636;10.012;2023-08-17T09:22:30;16.20;99.90
20858;DHT22;10589;53.636;10.012;2023-08-17T09:25:01;16.20;99.90
20858;DHT22;10589;53.636;10.012;2023-08-17T09:27:27;16.20;99.90
20858;DHT22;10589;53.636;10.012;2023-08-17T09:29:53;16.20;99.90
20858;DHT22;10589;53.636;10.012;2023-08-17T09:32:30;16.30;99.90
20858;DHT22;10589;53.636;10.012;2023-08-17T09:34:55;16.30;99.90
20858;DHT22;10589;53.636;10.012;2023-08-17T09:37:21;16.40;99.90
20858;DHT22;10589;53.636;10.012;2023-08-17T09:39:47;16.50;99.90
20858;DHT22;10589;53.636;10.012;2023-08-17T09:42:14;16.60;99.90
20858;DHT22;10589;53.636;10.012;2023-08-17T09:44:43;16.70;99.90
20858;DHT22;10589;53.636;10.012;2023-08-17T09:47:10;16.80;99.90
20858;DHT22;10589;53.636;10.012;2023-08-17T09:49:36;16.80;99.90
20858;DHT22;10589;53.636;10.012;2023-08-17T09:52:01;16.90;99.90
20858;DHT22;10589;53.636;10.012;2023-08-17T09:54:31;17.10;99.90
20858;DHT22;10589;53.636;10.012;2023-08-17T09:56:58;17.30;99.90
20858;DHT22;10589;53.636;10.012;2023-08-17T09:59:24;17.30;99.90
20858;DHT22;10589;53.636;10.012;2023-08-17T10:01:51;17.40;99.90
20858;DHT22;10589;53.636;10.012;2023-08-17T10:04:23;17.40;99.90
20858;DHT22;10589;53.636;10.012;2023-08-17T10:07:03;17.40;99.90
20858;DHT22;10589;53.636;10.012;2023-08-17T10:09:36;17.50;99.90
20858;DHT22;10589;53.636;10.012;2023-08-17T10:12:09;17.50;99.90
20858;DHT22;10589;53.636;10.012;2023-08-17T10:14:39;17.60;99.90
20858;DHT22;10589;53.636;10.012;2023-08-17T10:17:11;17.40;99.90
20858;DHT22;10589;53.636;10.012;2023-08-17T10:19:45;17.20;99.90
20858;DHT22;10589;53.636;10.012;2023-08-17T10:22:20;17.20;99.90
20858;DHT22;10589;53.636;10.012;2023-08-17T10:24:47;17.00;99.90
20858;DHT22;10589;53.636;10.012;2023-08-17T10:27:13;16.90;99.90
20858;DHT22;10589;53.636;10.012;2023-08-17T10:29:39;16.80;99.90
20858;DHT22;10589;53.636;10.012;2023-08-17T10:32:06;16.80;99.90
20858;DHT22;10589;53.636;10.012;2023-08-17T10:34:35;16.80;99.90
20858;DHT22;10589;53.636;10.012;2023-08-17T10:37:01;16.80;99.90
20858;DHT22;10589;53.636;10.012;2023-08-17T10:39:28;16.70;99.90
20858;DHT22;10589;53.636;10.012;2023-08-17T10:41:56;16.60;99.90
20858;DHT22;10589;53.636;10.012;2023-08-17T10:44:43;16.70;99.90
20858;DHT22;10589;53.636;10.012;2023-08-17T10:47:26;16.70;99.90
20858;DHT22;10589;53.636;10.012;2023-08-17T10:49:56;16.80;99.90
20858;DHT22;10589;53.636;10.012;2023-08-17T10:54:53;16.80;99.90
20858;DHT22;10589;53.636;10.012;2023-08-17T11:02:45;17.00;99.90
20858;DHT22;10589;53.636;10.012;2023-08-17T11:05:37;17.00;99.90
20858;DHT22;10589;53.636;10.012;2023-08-17T11:08:04;17.00;99.90
20858;DHT22;10589;53.636;10.012;2023-08-17T11:10:30;17.00;99.90
20858;DHT22;10589;53.636;10.012;2023-08-17T11:12:57;17.10;99.90
20858;DHT22;10589;53.636;10.012;2023-08-17T11:15:51;17.10;99.90
20858;DHT22;10589;53.636;10.012;2023-08-17T11:18:16;17.10;99.90
20858;DHT22;10589;53.636;10.012;2023-08-17T11:20:42;17.10;99.90
20858;DHT22;10589;53.636;10.012;2023-08-17T11:23:09;17.00;99.90
20858;DHT22;10589;53.636;10.012;2023-08-17T11:25:35;17.10;99.90
20858;DHT22;10589;53.636;10.012;2023-08-17T11:28:02;17.00;99.90
20858;DHT22;10589;53.636;10.012;2023-08-17T11:30:28;17.00;99.90
20858;DHT22;10589;53.636;10.012;2023-08-17T11:32:55;17.10;99.90
20858;DHT22;10589;53.636;10.012;2023-08-17T11:35:21;17.20;99.90
20858;DHT22;10589;53.636;10.012;2023-08-17T11:37:47;17.10;99.90
20858;DHT22;10589;53.636;10.012;2023-08-17T11:40:14;17.10;99.90
20858;DHT22;10589;53.636;10.012;2023-08-17T11:42:40;17.20;99.90
20858;DHT22;10589;53.636;10.012;2023-08-17T11:45:07;17.20;99.90
20858;DHT22;10589;53.636;10.012;2023-08-17T11:47:39;17.20;99.90
20858;DHT22;10589;53.636;10.012;2023-08-17T11:50:06;17.10;99.90
20858;DHT22;10589;53.636;10.012;2023-08-17T11:52:32;17.10;99.90
20858;DHT22;10589;53.636;10.012;2023-08-17T11:55:01;17.10;99.90
20858;DHT22;10589;53.636;10.012;2023-08-17T11:57:26;17.00;99.90
20858;DHT22;10589;53.636;10.012;2023-08-17T11:59:53;17.00;99.90
20858;DHT22;10589;53.636;10.012;2023-08-17T12:02:21;17.00;99.90
20858;DHT22;10589;53.636;10.012;2023-08-17T12:04:48;17.10;99.90
20858;DHT22;10589;53.636;10.012;2023-08-17T12:07:15;17.10;99.90
20858;DHT22;10589;53.636;10.012;2023-08-17T12:09:42;17.30;99.90
20858;DHT22;10589;53.636;10.012;2023-08-17T12:12:09;17.30;99.90
20858;DHT22;10589;53.636;10.012;2023-08-17T12:14:35;17.30;99.90
20858;DHT22;10589;53.636;10.012;2023-08-17T12:17:02;17.40;99.90
20858;DHT22;10589;53.636;10.012;2023-08-17T12:19:28;17.40;99.90
20858;DHT22;10589;53.636;10.012;2023-08-17T12:21:54;17.50;99.90
20858;DHT22;10589;53.636;10.012;2023-08-17T12:24:23;17.30;99.90
20858;DHT22;10589;53.636;10.012;2023-08-17T12:26:49;17.30;99.90
20858;DHT22;10589;53.636;10.012;2023-08-17T12:29:15;17.40;99.90
20858;DHT22;10589;53.636;10.012;2023-08-17T12:31:41;17.40;99.90
20858;DHT22;10589;53.636;10.012;2023-08-17T12:34:06;17.40;99.90
20858;DHT22;10589;53.636;10.012;2023-08-17T12:36:32;17.60;99.90
20858;DHT22;10589;53.636;10.012;2023-08-17T12:38:58;17.50;99.90
20858;DHT22;10589;53.636;10.012;2023-08-17T12:41:24;17.70;99.90
20858;DHT22;10589;53.636;10.012;2023-08-17T12:43:50;17.70;99.90
20858;DHT22;10589;53.636;10.012;2023-08-17T12:46:15;17.70;99.90
20858;DHT22;10589;53.636;10.012;2023-08-17T12:48:41;17.80;99.90
20858;DHT22;10589;53.636;10.012;2023-08-17T12:51:07;18.00;99.90
20858;DHT22;10589;53.636;10.012;2023-08-17T12:53:32;18.00;99.90
20858;DHT22;10589;53.636;10.012;2023-08-17T12:55:58;18.00;99.90
20858;DHT22;10589;53.636;10.012;2023-08-17T12:58:24;18.10;99.90
20858;DHT22;10589;53.636;10.012;2023-08-17T13:00:49;18.10;99.90
20858;DHT22;10589;53.636;10.012;2023-08-17T13:03:17;18.10;99.90
20858;DHT22;10589;53.636;10.012;2023-08-17T13:05:42;18.10;99.90
20858;DHT22;10589;53.636;10.012;2023-08-17T13:08:08;18.10;99.90
20858;DHT22;10589;53.636;10.012;2023-08-17T13:10:34;18.00;99.90
20858;DHT22;10589;53.636;10.012;2023-08-17T13:13:00;18.00;99.90
20858;DHT22;10589;53.636;10.012;2023-08-17T13:15:25;18.00;99.90
20858;DHT22;10589;53.636;10.012;2023-08-17T13:17:51;18.00;99.90
20858;DHT22;10589;53.636;10.012;2023-08-17T13:20:17;18.00;99.90
20858;DHT22;10589;53.636;10.012;2023-08-17T13:22:42;17.80;99.90
20858;DHT22;10589;53.636;10.012;2023-08-17T13:25:08;17.90;99.90
20858;DHT22;10589;53.636;10.012;2023-08-17T13:27:33;17.80;99.90
20858;DHT22;10589;53.636;10.012;2023-08-17T13:29:59;17.70;99.90
20858;DHT22;10589;53.636;10.012;2023-08-17T13:32:27;17.60;99.90
20858;DHT22;10589;53.636;10.012;2023-08-17T13:34:53;17.50;99.90
20858;DHT22;10589;53.636;10.012;2023-08-17T13:37:19;17.20;99.90
20858;DHT22;10589;53.636;10.012;2023-08-17T13:39:46;16.90;99.90
20858;DHT22;10589;53.636;10.012;2023-08-17T13:42:11;16.70;99.90
20858;DHT22;10589;53.636;10.012;2023-08-17T13:44:38;16.60;99.90
20858;DHT22;10589;53.636;10.012;2023-08-17T13:47:04;16.40;99.90
20858;DHT22;10589;53.636;10.012;2023-08-17T13:49:29;16.30;99.90
20858;DHT22;10589;53.636;10.012;2023-08-17T13:51:55;16.20;99.90
20858;DHT22;10589;53.636;10.012;2023-08-17T13:54:24;16.10;99.90
20858;DHT22;10589;53.636;10.012;2023-08-17T13:56:50;16.00;99.90
20858;DHT22;10589;53.636;10.012;2023-08-17T13:59:15;15.90;99.90
20858;DHT22;10589;53.636;10.012;2023-08-17T14:01:41;15.90;99.90
20858;DHT22;10589;53.636;10.012;2023-08-17T14:04:07;16.00;99.90
20858;DHT22;10589;53.636;10.012;2023-08-17T14:06:38;16.10;99.90
20858;DHT22;10589;53.636;10.012;2023-08-17T14:09:04;16.20;99.90
20858;DHT22;10589;53.636;10.012;2023-08-17T14:11:30;16.20;99.90
20858;DHT22;10589;53.636;10.012;2023-08-17T14:13:56;16.30;99.90
20858;DHT22;10589;53.636;10.012;2023-08-17T14:16:22;16.20;99.90
20858;DHT22;10589;53.636;10.012;2023-08-17T14:18:47;16.20;99.90
20858;DHT22;10589;53.636;10.012;2023-08-17T14:21:13;16.20;99.90
20858;DHT22;10589;53.636;10.012;2023-08-17T14:23:39;16.10;99.90
20858;DHT22;10589;53.636;10.012;2023-08-17T14:26:05;16.20;99.90
20858;DHT22;10589;53.636;10.012;2023-08-17T14:28:30;16.10;99.90
20858;DHT22;10589;53.636;10.012;2023-08-17T14:30:56;16.10;99.90
20858;DHT22;10589;53.636;10.012;2023-08-17T14:33:22;16.00;99.90
20858;DHT22;10589;53.636;10.012;2023-08-17T14:35:47;16.00;99.90
20858;DHT22;10589;53.636;10.012;2023-08-17T14:38:13;16.00;99.90
20858;DHT22;10589;53.636;10.012;2023-08-17T14:40:46;16.20;99.90
20858;DHT22;10589;53.636;10.012;2023-08-17T14:43:12;16.10;99.90
20858;DHT22;10589;53.636;10.012;2023-08-17T14:45:40;16.10;99.90
20858;DHT22;10589;53.636;10.012;2023-08-17T14:48:06;16.10;99.90
20858;DHT22;10589;53.636;10.012;2023-08-17T14:50:35;16.10;99.90
20858;DHT22;10589;53.636;10.012;2023-08-17T14:53:02;16.00;99.90
20858;DHT22;10589;53.636;10.012;2023-08-17T14:55:29;15.90;99.90
20858;DHT22;10589;53.636;10.012;2023-08-17T14:57:55;15.90;99.90
20858;DHT22;10589;53.636;10.012;2023-08-17T15:00:21;16.00;99.90
20858;DHT22;10589;53.636;10.012;2023-08-17T15:02:47;15.80;99.90
20858;DHT22;10589;53.636;10.012;2023-08-17T15:05:12;15.80;99.90
20858;DHT22;10589;53.636;10.012;2023-08-17T15:07:38;15.80;99.90
20858;DHT22;10589;53.636;10.012;2023-08-17T15:10:04;15.80;99.90
20858;DHT22;10589;53.636;10.012;2023-08-17T15:12:29;15.80;99.90
20858;DHT22;10589;53.636;10.012;2023-08-17T15:14:55;15.90;99.90
20858;DHT22;10589;53.636;10.012;2023-08-17T15:17:20;15.80;99.90
20858;DHT22;10589;53.636;10.012;2023-08-17T15:19:46;15.80;99.90
20858;DHT22;10589;53.636;10.012;2023-08-17T15:22:12;15.90;99.90
20858;DHT22;10589;53.636;10.012;2023-08-17T15:24:37;15.80;99.90
20858;DHT22;10589;53.636;10.012;2023-08-17T15:27:03;15.80;99.90
20858;DHT22;10589;53.636;10.012;2023-08-17T15:29:28;15.90;99.90
20858;DHT22;10589;53.636;10.012;2023-08-17T15:31:54;15.90;99.90
20858;DHT22;10589;53.636;10.012;2023-08-17T15:34:20;15.90;99.90
20858;DHT22;10589;53.636;10.012;2023-08-17T15:36:45;15.90;99.90
20858;DHT22;10589;53.636;10.012;2023-08-17T15:39:11;15.90;99.90
20858;DHT22;10589;53.636;10.012;2023-08-17T15:41:37;15.90;99.90
20858;DHT22;10589;53.636;10.012;2023-08-17T15:44:03;16.00;99.90
20858;DHT22;10589;53.636;10.012;2023-08-17T15:46:28;16.00;99.90
20858;DHT22;10589;53.636;10.012;2023-08-17T15:48:56;16.00;99.90
20858;DHT22;10589;53.636;10.012;2023-08-17T15:51:22;16.10;99.90
20858;DHT22;10589;53.636;10.012;2023-08-17T15:53:48;16.10;99.90
20858;DHT22;10589;53.636;10.012;2023-08-17T15:56:14;16.10;99.90
20858;DHT22;10589;53.636;10.012;2023-08-17T15:58:41;16.10;99.90
20858;DHT22;10589;53.636;10.012;2023-08-17T16:01:07;16.10;99.90
20858;DHT22;10589;53.636;10.012;2023-08-17T16:03:32;16.20;99.90
20858;DHT22;10589;53.636;10.012;2023-08-17T16:05:58;16.20;99.90
20858;DHT22;10589;53.636;10.012;2023-08-17T16:08:23;16.20;99.90
20858;DHT22;10589;53.636;10.012;2023-08-17T16:10:49;16.20;99.90
20858;DHT22;10589;53.636;10.012;2023-08-17T16:13:15;16.30;99.90
20858;DHT22;10589;53.636;10.012;2023-08-17T16:15:40;16.30;99.90
20858;DHT22;10589;53.636;10.012;2023-08-17T16:18:06;16.30;99.90
20858;DHT22;10589;53.636;10.012;2023-08-17T16:20:32;16.30;99.90
20858;DHT22;10589;53.636;10.012;2023-08-17T16:22:59;16.40;99.90
20858;DHT22;10589;53.636;10.012;2023-08-17T16:25:25;16.40;99.90
20858;DHT22;10589;53.636;10.012;2023-08-17T16:27:51;16.40;99.90
20858;DHT22;10589;53.636;10.012;2023-08-17T16:30:17;16.40;99.90
20858;DHT22;10589;53.636;10.012;2023-08-17T16:32:42;16.40;99.90
20858;DHT22;10589;53.636;10.012;2023-08-17T16:35:08;16.40;99.90
20858;DHT22;10589;53.636;10.012;2023-08-17T16:37:34;16.40;99.90
20858;DHT22;10589;53.636;10.012;2023-08-17T16:40:00;16.40;99.90
20858;DHT22;10589;53.636;10.012;2023-08-17T16:42:25;16.40;99.90
20858;DHT22;10589;53.636;10.012;2023-08-17T16:44:51;16.40;99.90
20858;DHT22;10589;53.636;10.012;2023-08-17T16:47:16;16.40;99.90
20858;DHT22;10589;53.636;10.012;2023-08-17T16:49:42;16.40;99.90
20858;DHT22;10589;53.636;10.012;2023-08-17T16:52:08;16.40;99.90
20858;DHT22;10589;53.636;10.012;2023-08-17T16:54:33;16.30;99.90
20858;DHT22;10589;53.636;10.012;2023-08-17T16:56:59;16.30;99.90
20858;DHT22;10589;53.636;10.012;2023-08-17T16:59:24;16.30;99.90
20858;DHT22;10589;53.636;10.012;2023-08-17T17:01:51;16.30;99.90
20858;DHT22;10589;53.636;10.012;2023-08-17T17:04:17;16.30;99.90
20858;DHT22;10589;53.636;10.012;2023-08-17T17:06:42;16.30;99.90
20858;DHT22;10589;53.636;10.012;2023-08-17T17:09:08;16.20;99.90
20858;DHT22;10589;53.636;10.012;2023-08-17T17:11:34;16.20;99.90
20858;DHT22;10589;53.636;10.012;2023-08-17T17:13:59;16.20;99.90
20858;DHT22;10589;53.636;10.012;2023-08-17T17:16:25;16.10;99.90
20858;DHT22;10589;53.636;10.012;2023-08-17T17:18:51;16.20;99.90
20858;DHT22;10589;53.636;10.012;2023-08-17T17:21:16;16.20;99.90
20858;DHT22;10589;53.636;10.012;2023-08-17T17:23:42;16.20;99.90
20858;DHT22;10589;53.636;10.012;2023-08-17T17:26:08;16.10;99.90
20858;DHT22;10589;53.636;10.012;2023-08-17T17:28:34;16.20;99.90
20858;DHT22;10589;53.636;10.012;2023-08-17T17:31:01;16.10;99.90
20858;DHT22;10589;53.636;10.012;2023-08-17T17:33:26;16.20;99.90
20858;DHT22;10589;53.636;10.012;2023-08-17T17:35:52;16.20;99.90
20858;DHT22;10589;53.636;10.012;2023-08-17T17:38:18;16.10;99.90
20858;DHT22;10589;53.636;10.012;2023-08-17T17:40:44;16.20;99.90
20858;DHT22;10589;53.636;10.012;2023-08-17T17:43:10;16.10;99.90
20858;DHT22;10589;53.636;10.012;2023-08-17T17:45:37;16.10;99.90
20858;DHT22;10589;53.636;10.012;2023-08-17T17:48:03;16.10;99.90
20858;DHT22;10589;53.636;10.012;2023-08-17T17:50:29;16.20;99.90
20858;DHT22;10589;53.636;10.012;2023-08-17T17:52:54;16.10;99.90
20858;DHT22;10589;53.636;10.012;2023-08-17T17:55:20;16.20;99.90
20858;DHT22;10589;53.636;10.012;2023-08-17T17:57:46;16.10;99.90
20858;DHT22;10589;53.636;10.012;2023-08-17T18:00:12;16.20;99.90
20858;DHT22;10589;53.636;10.012;2023-08-17T18:02:38;16.10;99.90
20858;DHT22;10589;53.636;10.012;2023-08-17T18:05:04;16.10;99.90
20858;DHT22;10589;53.636;10.012;2023-08-17T18:07:30;16.20;99.90
20858;DHT22;10589;53.636;10.012;2023-08-17T18:09:55;16.20;99.90
20858;DHT22;10589;53.636;10.012;2023-08-17T18:12:21;16.20;99.90
20858;DHT22;10589;53.636;10.012;2023-08-17T18:14:47;16.10;99.90
20858;DHT22;10589;53.636;10.012;2023-08-17T18:17:14;16.10;99.90
20858;DHT22;10589;53.636;10.012;2023-08-17T18:19:40;16.20;99.90
20858;DHT22;10589;53.636;10.012;2023-08-17T18:22:06;16.10;99.90
20858;DHT22;10589;53.636;10.012;2023-08-17T18:24:31;16.10;99.90
20858;DHT22;10589;53.636;10.012;2023-08-17T18:26:57;16.10;99.90
20858;DHT22;10589;53.636;10.012;2023-08-17T18:29:22;16.10;99.90
20858;DHT22;10589;53.636;10.012;2023-08-17T18:31:49;16.20;99.90
20858;DHT22;10589;53.636;10.012;2023-08-17T18:34:15;16.20;99.90
20858;DHT22;10589;53.636;10.012;2023-08-17T18:36:41;16.20;99.90
20858;DHT22;10589;53.636;10.012;2023-08-17T18:39:07;16.20;99.90
20858;DHT22;10589;53.636;10.012;2023-08-17T18:41:33;16.20;99.90
20858;DHT22;10589;53.636;10.012;2023-08-17T18:43:58;16.20;99.90
20858;DHT22;10589;53.636;10.012;2023-08-17T18:46:24;16.20;99.90
20858;DHT22;10589;53.636;10.012;2023-08-17T18:48:50;16.30;99.90
20858;DHT22;10589;53.636;10.012;2023-08-17T18:51:16;16.30;99.90
20858;DHT22;10589;53.636;10.012;2023-08-17T18:53:43;16.30;99.90
20858;DHT22;10589;53.636;10.012;2023-08-17T18:56:09;16.30;99.90
20858;DHT22;10589;53.636;10.012;2023-08-17T18:58:34;16.30;99.90
20858;DHT22;10589;53.636;10.012;2023-08-17T19:01:00;16.30;99.90
20858;DHT22;10589;53.636;10.012;2023-08-17T19:03:27;16.40;99.90